Time,TemperatureF,DewpointF,PressureIn,WindDirection,WindDirectionDegrees,WindSpeedMPH,WindSpeedGustMPH,Humidity,HourlyPrecipIn,Conditions,Clouds,dailyrainin,SoftwareType,DateUTC
2013-09-16 00:02:00,51.0,46.0,-100.00,SE,125,1.0,1.0,83,0.00,,,0.00,,2013-09-16 07:02:00,
2013-09-16 00:11:00,51.0,46.0,-100.00,SE,125,1.0,1.0,83,0.00,,,0.00,,2013-09-16 07:11:00,
2013-09-16 00:43:00,50.0,46.0,-100.00,East,81,1.0,3.0,86,0.00,,,0.00,,2013-09-16 07:43:00,
2013-09-16 00:52:00,50.0,46.0,-100.00,East,81,1.0,3.0,86,0.00,,,0.00,,2013-09-16 07:52:00,
2013-09-16 01:02:00,50.0,46.0,-100.00,East,81,1.0,3.0,86,0.00,,,0.00,,2013-09-16 08:02:00,
2013-09-16 01:11:00,50.0,46.0,-100.00,East,81,1.0,3.0,86,0.00,,,0.00,,2013-09-16 08:11:00,
2013-09-16 01:42:00,49.0,45.0,-100.00,ESE,114,0.0,2.0,87,0.00,,,0.00,,2013-09-16 08:42:00,
2013-09-16 01:52:00,49.0,45.0,-100.00,ESE,114,0.0,2.0,87,0.00,,,0.00,,2013-09-16 08:52:00,
2013-09-16 02:01:00,49.0,45.0,-100.00,ESE,114,0.0,2.0,87,0.00,,,0.00,,2013-09-16 09:01:00,
2013-09-16 02:11:00,49.0,45.0,-100.00,ESE,114,0.0,2.0,87,0.00,,,0.00,,2013-09-16 09:11:00,
2013-09-16 02:43:00,50.0,47.0,-100.00,SSE,167,1.0,3.0,88,0.00,,,0.00,,2013-09-16 09:43:00,
2013-09-16 02:53:00,50.0,47.0,-100.00,SSE,167,1.0,3.0,88,0.00,,,0.00,,2013-09-16 09:53:00,
2013-09-16 03:03:00,50.0,47.0,-100.00,SSE,167,1.0,3.0,88,0.00,,,0.00,,2013-09-16 10:03:00,
2013-09-16 03:12:00,50.0,47.0,-100.00,SSE,167,1.0,3.0,88,0.00,,,0.00,,2013-09-16 10:12:00,
2013-09-16 03:42:00,48.0,45.0,-100.00,SE,126,1.0,2.0,88,0.00,,,-99.99,,2013-09-16 10:42:00,
2013-09-16 03:53:00,48.0,45.0,-100.00,SE,126,1.0,2.0,88,0.00,,,-99.99,,2013-09-16 10:53:00,
2013-09-16 04:02:00,48.0,45.0,-100.00,SE,126,1.0,2.0,88,0.00,,,-99.99,,2013-09-16 11:02:00,
2013-09-16 04:12:00,48.0,45.0,-100.00,SE,126,1.0,2.0,88,0.00,,,-99.99,,2013-09-16 11:12:00,
2013-09-16 04:42:00,49.0,47.0,-100.00,SE,124,3.0,4.0,94,0.00,,,0.00,,2013-09-16 11:42:00,
2013-09-16 04:52:00,49.0,47.0,-100.00,SE,124,3.0,4.0,94,0.00,,,0.00,,2013-09-16 11:52:00,
2013-09-16 05:01:00,49.0,47.0,-100.00,SE,124,3.0,4.0,94,0.00,,,0.00,,2013-09-16 12:01:00,
2013-09-16 05:12:00,49.0,47.0,-100.00,SE,124,3.0,4.0,94,0.00,,,0.00,,2013-09-16 12:12:00,
2013-09-16 05:42:00,47.0,45.0,-100.00,ESE,110,1.0,4.0,91,0.00,,,0.00,,2013-09-16 12:42:00,
2013-09-16 05:52:00,47.0,45.0,-100.00,ESE,110,1.0,4.0,91,0.00,,,0.00,,2013-09-16 12:52:00,
2013-09-16 06:02:00,47.0,45.0,-100.00,ESE,110,1.0,4.0,91,0.00,,,0.00,,2013-09-16 13:02:00,
2013-09-16 06:11:00,47.0,45.0,-100.00,ESE,110,1.0,4.0,91,0.00,,,0.00,,2013-09-16 13:11:00,
2013-09-16 06:42:00,45.0,44.0,-100.00,NNE,21,0.0,1.0,96,0.00,,,0.00,,2013-09-16 13:42:00,
2013-09-16 06:52:00,45.0,44.0,-100.00,NNE,21,0.0,1.0,96,0.00,,,0.00,,2013-09-16 13:52:00,
2013-09-16 07:02:00,45.0,44.0,-100.00,NNE,21,0.0,1.0,96,0.00,,,0.00,,2013-09-16 14:02:00,
2013-09-16 07:11:00,45.0,44.0,-100.00,NNE,21,0.0,1.0,96,0.00,,,0.00,,2013-09-16 14:11:00,
2013-09-16 07:42:00,52.0,50.0,-100.00,WNW,289,1.0,4.0,93,0.00,,,0.00,,2013-09-16 14:42:00,
2013-09-16 07:52:00,52.0,50.0,-100.00,WNW,289,1.0,4.0,93,0.00,,,0.00,,2013-09-16 14:52:00,
2013-09-16 08:02:00,52.0,50.0,-100.00,WNW,289,1.0,4.0,93,0.00,,,0.00,,2013-09-16 15:02:00,
2013-09-16 08:11:00,52.0,50.0,-100.00,WNW,289,1.0,4.0,93,0.00,,,0.00,,2013-09-16 15:11:00,
2013-09-16 09:12:00,69.0,50.0,-100.00,SE,127,7.0,12.0,50,0.00,,,0.00,,2013-09-16 16:12:00,
2013-09-16 09:52:00,72.0,48.0,-100.00,ESE,120,8.0,14.0,43,0.00,,,0.00,,2013-09-16 16:52:00,
2013-09-16 10:02:00,72.0,48.0,-100.00,ESE,120,8.0,14.0,43,0.00,,,0.00,,2013-09-16 17:02:00,
2013-09-16 10:12:00,72.0,48.0,-100.00,ESE,120,8.0,14.0,43,0.00,,,0.00,,2013-09-16 17:12:00,
2013-09-16 10:42:00,74.0,47.0,-100.00,ESE,107,6.0,17.0,39,0.00,,,0.00,,2013-09-16 17:42:00,
2013-09-16 10:53:00,74.0,47.0,-100.00,ESE,107,6.0,17.0,39,0.00,,,0.00,,2013-09-16 17:53:00,
2013-09-16 11:02:00,74.0,47.0,-100.00,ESE,107,6.0,17.0,39,0.00,,,0.00,,2013-09-16 18:02:00,
2013-09-16 11:12:00,74.0,47.0,-100.00,ESE,107,6.0,17.0,39,0.00,,,0.00,,2013-09-16 18:12:00,
2013-09-16 11:42:00,77.0,47.0,-100.00,West,270,5.0,11.0,35,0.00,,,0.00,,2013-09-16 18:42:00,
2013-09-16 11:52:00,77.0,47.0,-100.00,West,270,5.0,11.0,35,0.00,,,0.00,,2013-09-16 18:52:00,
2013-09-16 12:01:00,77.0,47.0,-100.00,West,270,5.0,11.0,35,0.00,,,0.00,,2013-09-16 19:01:00,
2013-09-16 12:11:00,77.0,47.0,-100.00,West,270,5.0,11.0,35,0.00,,,0.00,,2013-09-16 19:11:00,
2013-09-16 12:42:00,78.0,49.0,-100.00,SSE,149,7.0,13.0,36,0.00,,,0.00,,2013-09-16 19:42:00,
2013-09-16 12:53:00,78.0,49.0,-100.00,SSE,149,7.0,13.0,36,0.00,,,0.00,,2013-09-16 19:53:00,
2013-09-16 13:03:00,78.0,49.0,-100.00,SSE,149,7.0,13.0,36,0.00,,,0.00,,2013-09-16 20:03:00,
2013-09-16 13:11:00,78.0,49.0,-100.00,SSE,149,7.0,13.0,36,0.00,,,0.00,,2013-09-16 20:11:00,
2013-09-16 13:43:00,76.0,49.0,-100.00,East,96,5.0,10.0,39,0.00,,,0.00,,2013-09-16 20:43:00,
2013-09-16 13:52:00,76.0,49.0,-100.00,East,96,5.0,10.0,39,0.00,,,0.00,,2013-09-16 20:52:00,
2013-09-16 14:02:00,76.0,49.0,-100.00,East,96,5.0,10.0,39,0.00,,,0.00,,2013-09-16 21:02:00,
2013-09-16 14:11:00,76.0,49.0,-100.00,East,96,5.0,10.0,39,0.00,,,0.00,,2013-09-16 21:11:00,
2013-09-16 14:44:00,79.0,45.0,-100.00,SSW,206,6.0,14.0,30,0.00,,,0.00,,2013-09-16 21:44:00,
2013-09-16 14:56:00,79.0,45.0,-100.00,SSW,206,6.0,14.0,30,0.00,,,0.00,,2013-09-16 21:56:00,
2013-09-16 15:04:00,79.0,45.0,-100.00,SSW,206,6.0,14.0,30,0.00,,,0.00,,2013-09-16 22:04:00,
2013-09-16 15:13:00,79.0,45.0,-100.00,SSW,206,6.0,14.0,30,0.00,,,0.00,,2013-09-16 22:13:00,
2013-09-16 15:43:00,78.0,47.0,-100.00,ESE,120,6.0,14.0,33,0.00,,,0.00,,2013-09-16 22:43:00,
2013-09-16 15:53:00,78.0,47.0,-100.00,ESE,120,6.0,14.0,33,0.00,,,0.00,,2013-09-16 22:53:00,
2013-09-16 16:02:00,78.0,47.0,-100.00,ESE,120,6.0,14.0,33,0.00,,,0.00,,2013-09-16 23:02:00,
2013-09-16 16:12:00,78.0,47.0,-100.00,ESE,120,6.0,14.0,33,0.00,,,0.00,,2013-09-16 23:12:00,
2013-09-16 16:43:00,78.0,42.0,-100.00,ESE,116,6.0,15.0,28,0.00,,,0.00,,2013-09-16 23:43:00,
2013-09-16 16:53:00,78.0,42.0,-100.00,ESE,116,6.0,15.0,28,0.00,,,0.00,,2013-09-16 23:53:00,
2013-09-16 17:02:00,78.0,42.0,-100.00,ESE,116,6.0,15.0,28,0.00,,,0.00,,2013-09-17 00:02:00,
2013-09-16 17:11:00,78.0,42.0,-100.00,ESE,116,6.0,15.0,28,0.00,,,0.00,,2013-09-17 00:11:00,
2013-09-16 17:42:00,77.0,38.0,-100.00,South,175,3.0,10.0,25,0.00,,,0.00,,2013-09-17 00:42:00,
2013-09-16 17:52:00,77.0,38.0,-100.00,South,175,3.0,10.0,25,0.00,,,0.00,,2013-09-17 00:52:00,
2013-09-16 18:02:00,77.0,38.0,-100.00,South,175,3.0,10.0,25,0.00,,,0.00,,2013-09-17 01:02:00,
2013-09-16 18:11:00,77.0,38.0,-100.00,South,175,3.0,10.0,25,0.00,,,0.00,,2013-09-17 01:11:00,
2013-09-16 18:42:00,68.0,41.0,-100.00,SSE,154,4.0,8.0,37,0.00,,,0.00,,2013-09-17 01:42:00,
2013-09-16 18:52:00,68.0,41.0,-100.00,SSE,154,4.0,8.0,37,0.00,,,0.00,,2013-09-17 01:52:00,
2013-09-16 19:03:00,68.0,41.0,-100.00,SSE,154,4.0,8.0,37,0.00,,,0.00,,2013-09-17 02:03:00,
2013-09-16 19:11:00,68.0,41.0,-100.00,SSE,154,4.0,8.0,37,0.00,,,0.00,,2013-09-17 02:11:00,
2013-09-16 19:52:00,60.0,47.0,-100.00,SE,143,4.0,5.0,62,0.00,,,0.00,,2013-09-17 02:52:00,
2013-09-16 20:02:00,60.0,47.0,-100.00,SE,143,4.0,5.0,62,0.00,,,0.00,,2013-09-17 03:02:00,
2013-09-16 20:11:00,60.0,47.0,-100.00,SE,143,4.0,5.0,62,0.00,,,0.00,,2013-09-17 03:11:00,
2013-09-16 20:45:00,57.0,47.0,-100.00,East,93,2.0,5.0,70,0.00,,,0.00,,2013-09-17 03:45:00,
2013-09-16 20:54:00,57.0,47.0,-100.00,East,93,2.0,5.0,70,0.00,,,0.00,,2013-09-17 03:54:00,
2013-09-16 21:04:00,57.0,47.0,-100.00,East,93,2.0,5.0,70,0.00,,,0.00,,2013-09-17 04:04:00,
2013-09-16 21:14:00,57.0,47.0,-100.00,East,93,2.0,5.0,70,0.00,,,0.00,,2013-09-17 04:14:00,
2013-09-16 21:44:00,55.0,47.0,-100.00,ESE,122,1.0,3.0,73,0.00,,,0.00,,2013-09-17 04:44:00,
2013-09-16 21:54:00,55.0,47.0,-100.00,ESE,122,1.0,3.0,73,0.00,,,0.00,,2013-09-17 04:54:00,
2013-09-16 22:03:00,55.0,47.0,-100.00,ESE,122,1.0,3.0,73,0.00,,,0.00,,2013-09-17 05:03:00,
2013-09-16 22:12:00,55.0,47.0,-100.00,ESE,122,1.0,3.0,73,0.00,,,0.00,,2013-09-17 05:12:00,
2013-09-16 22:42:00,54.0,45.0,-100.00,NNE,33,0.0,4.0,72,0.00,,,0.00,,2013-09-17 05:42:00,
2013-09-16 22:52:00,54.0,45.0,-100.00,NNE,33,0.0,4.0,72,0.00,,,0.00,,2013-09-17 05:52:00,
2013-09-16 23:02:00,54.0,45.0,-100.00,NNE,33,0.0,4.0,72,0.00,,,0.00,,2013-09-17 06:02:00,
2013-09-16 23:12:00,54.0,45.0,-100.00,NNE,33,0.0,4.0,72,0.00,,,0.00,,2013-09-17 06:12:00,
2013-09-16 23:42:00,52.0,47.0,-100.00,ESE,111,0.0,1.0,82,0.00,,,0.00,,2013-09-17 06:42:00,
2013-09-16 23:52:00,52.0,47.0,-100.00,ESE,111,0.0,1.0,82,0.00,,,0.00,,2013-09-17 06:52:00,